Aérodrome :







RETROUVEZ-NOUS SUR...

 
LOGIN :

S'inscrire | Disclaimer

   EN    FR    IT 

 









Légende :    VFR   VFR Marginal   IFR   IFR Intensif   IFR Très Intensif
Visi : 
Plafond : 
>= 8 km
>= 3000ft
5 à 8 km
1000 à 3000 ft
1500m à 5 km
500 à 1000 ft
800 à 1500m
200 à 500 ft
< 800m
< 200 ft
Symboles :   Orages  Brouillard  Fortes neiges  Fortes précipitations  Vent > 20 kt






- Altitude de l'aérodrome : 54 ft
- Code IATA : BEL


SBBE - Val de Cans Int.

DERNIER METAR :
  • 202023Z 10006KT 4000 RA BKN020 FEW025TCU BKN070 25/23 Q1010

METARs EXPIRÉS :
  • 202000Z 04005KT 9999 SCT025 FEW030TCU BKN070 26/23 Q1009 RETS
  • 201900Z 03011KT 9999 4000N -TSRA SCT015 BKN020 FEW025CB 27/25 Q1009
  • 201835Z 33006KT 9999 TS VCSH BKN027 FEW030CB 28/25 Q1009
  • 201800Z 01005KT 9999 BKN030 FEW033TCU 28/24 Q1009 RETS

TAF TAF SBBE
Valide du 20 à 18h jusqu'au 21 à 18h UTC


201433Z 2018/2118 35010KT 8000 SCT035 FEW040TCU TN23/2109Z TX31/2116Z
TEMPO 2018/2021 3000 TSRA BKN015 FEW025CB
BECMG 2021/2023 06007KT FEW040
BECMG 2114/2116 35010KT SCT040 FEW045TCU RMK PHI
FIR SBAZ / Amérique du Sud



MET'MAP, la Météo Aéronautique d'un coup d'oeil ! - Copyright ORBIFLY Décembre 2007 - Disclaimer

ORBIFLY MET'MAP TEAM :

Programmation & Développement : Alexandra Zaïnal
Sur une idée originale de : Baudouin d'Aumeries
Assistance à la programmation : Marc-Olivier Méhu
Soutien technique & logistique : Manuel Goepfert

Contact : metmap@orbifly.com




SOURCES & CREDITS :

   NOAA